White Cloud, Michigan
Current Conditions -  °F | °C
As of 10:34 PM on Monday 26 Jan 2015 (Local Time) from KFFX Reporting Station
Overcast Overcast  
Wind Chill: 11°   Ceiling: 5000
Heat Index: 19°   Visibility: 10mi
Dew Point:   Wind: 6mph
Humidity: 52%   Direction: 90°E
Pressure: 29.96"   Gusts: NA
Location:  43.55°N, 85.77°W
Report Text: KFFX 270334Z AUTO 09005KT 10SM OVC050 M07/M15 A2996 RMK AO2 T10701154
Loading
Personal Weather Stations






























Interactive Weather Map New forecast layout! Learn more

10-Day Weather Forecast

Advertisements
Track Severe Weather on mobile